Time;durP1;ratioP1;P1;durP2;ratioP2;P2;SDS_P1;SDS_P2;PMS_P1;PMS_P2;Temp;Humidity;BMP_temperature;BMP_pressure;BME280_temperature;BME280_humidity;BME280_pressure;Samples;Min_cycle;Max_cycle;Signal;HPM_P1;HPM_P2
2021/05/29 00:01:04;;;;;;;3.70;2.87;;;13.80;99.90;;;;;;4996281;28;20660;-52
2021/05/29 00:03:31;;;;;;;4.73;2.90;;;13.70;99.90;;;;;;4996449;28;20325;-52
2021/05/29 00:05:58;;;;;;;3.57;3.27;;;13.60;99.90;;;;;;5001797;28;20347;-53
2021/05/29 00:08:25;;;;;;;3.70;3.07;;;13.60;99.90;;;;;;4996824;28;20210;-52
2021/05/29 00:10:55;;;;;;;4.67;3.03;;;13.50;99.90;;;;;;4977588;28;20236;-52
2021/05/29 00:13:25;;;;;;;3.00;2.70;;;13.50;99.90;;;;;;4995754;28;20660;-52
2021/05/29 00:15:52;;;;;;;6.07;3.23;;;13.50;99.90;;;;;;4995582;28;20247;-52
2021/05/29 00:18:19;;;;;;;3.70;3.00;;;13.50;99.90;;;;;;4981902;28;20704;-52
2021/05/29 00:20:48;;;;;;;4.00;3.60;;;13.50;99.90;;;;;;4997424;28;20241;-52
2021/05/29 00:23:15;;;;;;;4.87;2.90;;;13.50;99.90;;;;;;4996339;28;20336;-52
2021/05/29 00:25:44;;;;;;;4.00;3.40;;;13.50;99.90;;;;;;4980005;28;20271;-52
2021/05/29 00:28:11;;;;;;;5.00;3.07;;;13.30;99.90;;;;;;4995015;28;20320;-52
2021/05/29 00:30:39;;;;;;;4.33;3.40;;;13.20;99.90;;;;;;4996163;28;20234;-52
2021/05/29 00:33:07;;;;;;;4.70;3.57;;;13.10;99.90;;;;;;4992501;28;20339;-52
2021/05/29 00:35:34;;;;;;;3.80;3.23;;;13.20;99.90;;;;;;4977498;28;20293;-52
2021/05/29 00:38:01;;;;;;;3.97;3.30;;;13.10;99.90;;;;;;4995467;28;20235;-53
2021/05/29 00:40:28;;;;;;;5.00;3.17;;;13.00;99.90;;;;;;4996368;28;20220;-53
2021/05/29 00:42:55;;;;;;;3.97;3.37;;;13.20;99.90;;;;;;4996333;28;20679;-53
2021/05/29 00:45:22;;;;;;;3.67;3.20;;;13.00;99.90;;;;;;4995633;28;20268;-53
2021/05/29 00:47:49;;;;;;;3.33;3.03;;;12.90;99.90;;;;;;4993006;28;20207;-53
2021/05/29 00:50:17;;;;;;;5.30;3.47;;;13.10;99.90;;;;;;4975451;28;20299;-54
2021/05/29 00:52:44;;;;;;;4.83;3.70;;;13.10;99.90;;;;;;4994623;28;20608;-52
2021/05/29 00:55:13;;;;;;;4.27;3.60;;;13.00;99.90;;;;;;4993408;28;20271;-52
2021/05/29 00:57:42;;;;;;;4.50;3.67;;;13.00;99.90;;;;;;4996132;28;20248;-52
2021/05/29 01:00:11;;;;;;;4.13;3.47;;;13.10;99.90;;;;;;4994809;28;20291;-52
2021/05/29 01:02:38;;;;;;;4.47;3.43;;;12.80;99.90;;;;;;4974891;28;20578;-52
2021/05/29 01:05:10;;;;;;;4.43;3.57;;;12.70;99.90;;;;;;4994158;28;20563;-52
2021/05/29 01:07:37;;;;;;;3.73;3.30;;;12.70;99.90;;;;;;4993167;28;20278;-52
2021/05/29 01:10:07;;;;;;;5.87;3.93;;;12.50;99.90;;;;;;4992312;28;20351;-52
2021/05/29 01:12:35;;;;;;;5.20;3.80;;;12.40;99.90;;;;;;4978455;28;20649;-52
2021/05/29 01:15:06;;;;;;;4.07;3.33;;;12.60;99.90;;;;;;4992960;28;20298;-53
2021/05/29 01:17:33;;;;;;;4.37;3.70;;;12.70;99.90;;;;;;4976986;28;20222;-52
2021/05/29 01:20:00;;;;;;;4.33;3.60;;;12.70;99.90;;;;;;4993088;28;20213;-53
2021/05/29 01:22:39;;;;;;;5.47;4.10;;;12.60;99.90;;;;;;4992962;28;20208;-53
2021/05/29 01:25:32;;;;;;;4.50;3.60;;;12.60;99.90;;;;;;4992623;28;20228;-53
2021/05/29 01:28:01;;;;;;;4.77;3.90;;;12.30;99.90;;;;;;4992568;28;20335;-53
2021/05/29 01:30:31;;;;;;;4.07;3.30;;;12.40;99.90;;;;;;4992169;28;20251;-51
2021/05/29 01:32:59;;;;;;;4.23;3.33;;;12.50;99.90;;;;;;4989520;28;20337;-52
2021/05/29 01:35:26;;;;;;;5.63;3.73;;;12.50;99.90;;;;;;4994359;28;20613;-51
2021/05/29 01:37:53;;;;;;;4.13;3.70;;;12.40;99.90;;;;;;4993628;28;20634;-51
2021/05/29 01:40:20;;;;;;;4.20;3.57;;;12.40;99.90;;;;;;4992898;28;20380;-52
2021/05/29 01:42:48;;;;;;;3.70;3.30;;;12.50;99.90;;;;;;4990356;28;20286;-52
2021/05/29 01:45:15;;;;;;;4.43;3.67;;;12.40;99.90;;;;;;4993138;28;20282;-52
2021/05/29 01:47:44;;;;;;;3.97;3.30;;;12.30;99.90;;;;;;4991866;28;20269;-52
2021/05/29 01:50:13;;;;;;;7.17;4.20;;;12.30;99.90;;;;;;4992245;28;20707;-52
2021/05/29 01:52:53;;;;;;;5.80;4.03;;;12.40;99.90;;;;;;4993128;28;20274;-51
2021/05/29 01:55:23;;;;;;;4.20;3.30;;;12.50;99.90;;;;;;4992573;28;20206;-52
2021/05/29 01:57:52;;;;;;;4.63;4.20;;;12.50;99.90;;;;;;4993207;28;20660;-52
2021/05/29 02:00:22;;;;;;;5.43;4.03;;;12.50;99.90;;;;;;4993749;28;20296;-52
2021/05/29 02:02:49;;;;;;;5.20;4.40;;;12.40;99.90;;;;;;4992040;28;20301;-52
2021/05/29 02:05:23;;;;;;;4.10;3.70;;;12.40;99.90;;;;;;4988510;28;20200;-52
2021/05/29 02:07:50;;;;;;;5.03;4.30;;;12.50;99.90;;;;;;4992231;28;20660;-52
2021/05/29 02:10:23;;;;;;;6.57;3.80;;;12.40;99.90;;;;;;4993821;28;20285;-52
2021/05/29 02:12:52;;;;;;;5.20;4.20;;;12.20;99.90;;;;;;4994265;28;20265;-53
2021/05/29 02:15:22;;;;;;;5.47;4.60;;;12.20;99.90;;;;;;4993569;28;20211;-53
2021/05/29 02:17:52;;;;;;;7.27;3.80;;;12.30;99.90;;;;;;4991794;28;20302;-51
2021/05/29 02:20:44;;;;;;;5.77;4.23;;;12.10;99.90;;;;;;4993305;28;20273;-52
2021/05/29 02:23:14;;;;;;;5.87;3.97;;;12.30;99.90;;;;;;4991368;28;20753;-52
2021/05/29 02:25:41;;;;;;;4.30;3.90;;;12.20;99.90;;;;;;4992893;28;20616;-51
2021/05/29 02:28:09;;;;;;;6.43;4.43;;;12.00;99.90;;;;;;4993551;28;20342;-52
2021/05/29 02:30:36;;;;;;;5.40;4.40;;;12.00;99.90;;;;;;4993301;28;20251;-52
2021/05/29 02:33:04;;;;;;;4.80;4.00;;;12.10;99.90;;;;;;4990427;28;20712;-52
2021/05/29 02:35:32;;;;;;;6.07;4.70;;;12.10;99.90;;;;;;4990384;28;20254;-52
2021/05/29 02:37:59;;;;;;;6.57;4.73;;;12.10;99.90;;;;;;4993592;28;20391;-52
2021/05/29 02:40:26;;;;;;;5.53;4.33;;;12.10;99.90;;;;;;4994509;28;20202;-51
2021/05/29 02:42:53;;;;;;;5.67;4.07;;;12.10;99.90;;;;;;4992068;28;20298;-51
2021/05/29 02:45:21;;;;;;;6.23;4.10;;;12.20;99.90;;;;;;4994313;28;20299;-52
2021/05/29 02:47:47;;;;;;;6.93;4.67;;;12.30;99.90;;;;;;4975191;28;20649;-53
2021/05/29 02:50:15;;;;;;;5.40;3.97;;;12.20;99.90;;;;;;4974994;28;20675;-53
2021/05/29 02:52:42;;;;;;;5.17;4.03;;;12.10;99.90;;;;;;4974662;28;20239;-52
2021/05/29 02:55:14;;;;;;;7.33;4.73;;;12.10;99.90;;;;;;4991455;28;20218;-52
2021/05/29 02:57:41;;;;;;;5.60;4.40;;;12.20;99.90;;;;;;4992446;28;20224;-52
2021/05/29 03:00:10;;;;;;;7.80;5.10;;;12.30;99.90;;;;;;4994446;28;20256;-52
2021/05/29 03:02:37;;;;;;;6.47;4.80;;;12.30;99.90;;;;;;4992173;28;20196;-52
2021/05/29 03:05:06;;;;;;;6.37;4.80;;;12.20;99.90;;;;;;4974344;28;20494;-53
2021/05/29 03:07:33;;;;;;;6.17;4.90;;;12.10;99.90;;;;;;4992280;28;20252;-53
2021/05/29 03:10:01;;;;;;;8.33;4.97;;;12.00;99.90;;;;;;4990298;28;20316;-52
2021/05/29 03:12:27;;;;;;;7.63;5.17;;;11.90;99.90;;;;;;4993178;28;20247;-52
2021/05/29 03:14:54;;;;;;;7.03;4.93;;;11.80;99.90;;;;;;4992320;28;20750;-53
2021/05/29 03:17:21;;;;;;;8.00;5.20;;;11.80;99.90;;;;;;4992133;28;20309;-53
2021/05/29 03:19:48;;;;;;;8.03;5.60;;;11.80;99.90;;;;;;4993728;28;20359;-52
2021/05/29 03:22:15;;;;;;;7.27;5.27;;;11.90;99.90;;;;;;4992834;28;20207;-52
2021/05/29 03:24:42;;;;;;;9.60;5.87;;;11.90;99.90;;;;;;4992064;28;20544;-53
2021/05/29 03:27:09;;;;;;;5.97;5.17;;;11.80;99.90;;;;;;4993093;28;20317;-52
2021/05/29 03:29:36;;;;;;;6.90;5.57;;;11.90;99.90;;;;;;4991982;28;20229;-52
2021/05/29 03:32:02;;;;;;;8.23;5.83;;;11.80;99.90;;;;;;4991648;28;20286;-52
2021/05/29 03:34:29;;;;;;;7.67;5.30;;;11.90;99.90;;;;;;4973662;28;20243;-52
2021/05/29 03:36:56;;;;;;;9.13;6.37;;;11.80;99.90;;;;;;4993788;28;20223;-52
2021/05/29 03:39:23;;;;;;;8.13;5.83;;;11.70;99.90;;;;;;4992015;28;20208;-51
2021/05/29 03:41:50;;;;;;;6.97;5.43;;;11.80;99.90;;;;;;4990927;28;20203;-51
2021/05/29 03:44:16;;;;;;;6.90;5.13;;;11.80;99.90;;;;;;4992745;28;20303;-52
2021/05/29 03:46:43;;;;;;;9.03;5.87;;;11.80;99.90;;;;;;4991758;28;20310;-52
2021/05/29 03:49:10;;;;;;;9.53;6.23;;;11.70;99.90;;;;;;4991150;28;20315;-52
2021/05/29 03:51:37;;;;;;;11.47;5.90;;;11.80;99.90;;;;;;4991860;28;20279;-52
2021/05/29 03:54:03;;;;;;;8.17;5.50;;;11.90;99.90;;;;;;4974316;28;20317;-52
2021/05/29 03:56:30;;;;;;;8.30;6.13;;;11.90;99.90;;;;;;4975835;28;20269;-52
2021/05/29 03:58:57;;;;;;;9.37;5.67;;;11.90;99.90;;;;;;4991493;28;20251;-52
2021/05/29 04:01:24;;;;;;;9.17;5.57;;;12.00;99.90;;;;;;4990779;28;20240;-52
2021/05/29 04:03:51;;;;;;;6.97;5.63;;;11.80;99.90;;;;;;4972916;28;20262;-52
2021/05/29 04:06:18;;;;;;;8.43;5.90;;;11.80;99.90;;;;;;4995112;28;20210;-51
2021/05/29 04:08:45;;;;;;;7.67;5.97;;;11.80;99.90;;;;;;4994457;28;20713;-51
2021/05/29 04:11:11;;;;;;;8.67;6.37;;;11.80;99.90;;;;;;4995218;28;20731;-52
2021/05/29 04:13:38;;;;;;;8.93;6.20;;;11.80;99.90;;;;;;4993359;28;20649;-52
2021/05/29 04:16:05;;;;;;;10.90;6.30;;;11.90;99.90;;;;;;4993355;28;20595;-52
2021/05/29 04:18:32;;;;;;;10.10;6.50;;;11.70;99.90;;;;;;4970370;28;20255;-52
2021/05/29 04:20:59;;;;;;;7.70;5.80;;;11.80;99.90;;;;;;4978715;28;20269;-52
2021/05/29 04:23:25;;;;;;;8.00;5.80;;;11.70;99.90;;;;;;4993617;28;20295;-52
2021/05/29 04:25:52;;;;;;;10.57;5.83;;;11.70;99.90;;;;;;4995128;28;20250;-52
2021/05/29 04:28:19;;;;;;;9.60;5.90;;;11.70;99.90;;;;;;4995984;28;20750;-52
2021/05/29 04:30:46;;;;;;;9.60;6.27;;;11.80;99.90;;;;;;4994844;28;20207;-52
2021/05/29 04:33:13;;;;;;;11.17;5.70;;;11.80;99.90;;;;;;4994348;28;20340;-52
2021/05/29 04:35:40;;;;;;;9.27;6.07;;;11.70;99.90;;;;;;4996532;28;20669;-51
2021/05/29 04:38:06;;;;;;;9.43;6.30;;;11.80;99.90;;;;;;4993866;28;20244;-51
2021/05/29 04:40:33;;;;;;;8.53;6.40;;;11.80;99.90;;;;;;4996161;28;20696;-52
2021/05/29 04:43:01;;;;;;;7.37;5.77;;;11.70;99.90;;;;;;4993874;28;20538;-52
2021/05/29 04:45:28;;;;;;;8.70;6.47;;;11.80;99.90;;;;;;4995165;28;20362;-52
2021/05/29 04:47:55;;;;;;;8.13;6.57;;;11.80;99.90;;;;;;4994364;28;20629;-52
2021/05/29 04:50:23;;;;;;;13.33;6.70;;;11.90;99.90;;;;;;4994665;28;20749;-51
2021/05/29 04:52:50;;;;;;;8.73;6.03;;;11.90;99.90;;;;;;4992656;28;20197;-51
2021/05/29 04:55:18;;;;;;;8.97;6.80;;;11.80;99.90;;;;;;4991689;28;20660;-52
2021/05/29 04:57:45;;;;;;;10.60;6.27;;;11.90;99.90;;;;;;4961482;28;20253;-53
2021/05/29 05:00:15;;;;;;;8.00;6.07;;;11.90;99.90;;;;;;4979037;28;20350;-51
2021/05/29 05:02:42;;;;;;;8.07;6.33;;;12.00;99.90;;;;;;4992932;28;20452;-51
2021/05/29 05:05:10;;;;;;;10.23;5.50;;;12.00;99.90;;;;;;4994448;28;20267;-51
2021/05/29 05:07:37;;;;;;;10.23;6.37;;;12.00;99.90;;;;;;4994763;28;20310;-52
2021/05/29 05:10:05;;;;;;;9.77;6.00;;;12.20;99.90;;;;;;4991214;28;20338;-52
2021/05/29 05:12:32;;;;;;;7.43;6.13;;;12.30;99.90;;;;;;4994350;28;20212;-52
2021/05/29 05:14:59;;;;;;;8.13;5.40;;;12.40;99.90;;;;;;4977014;28;20354;-52
2021/05/29 05:17:26;;;;;;;8.27;5.63;;;12.60;99.90;;;;;;4992158;28;20216;-52
2021/05/29 05:19:53;;;;;;;9.50;5.47;;;12.60;99.90;;;;;;4995384;28;20296;-52
2021/05/29 05:22:20;;;;;;;8.80;5.73;;;12.80;99.90;;;;;;4994752;28;20255;-52
2021/05/29 05:24:47;;;;;;;8.03;5.53;;;12.80;99.90;;;;;;4991727;28;20229;-52
2021/05/29 05:27:13;;;;;;;7.13;5.50;;;12.70;99.90;;;;;;4977157;28;20611;-52
2021/05/29 05:29:40;;;;;;;5.90;5.20;;;12.80;99.90;;;;;;4960881;28;20211;-52
2021/05/29 05:32:08;;;;;;;6.93;5.70;;;12.90;99.90;;;;;;4991221;28;20811;-53
2021/05/29 05:34:35;;;;;;;6.77;5.50;;;13.10;99.90;;;;;;4990402;28;20326;-53
2021/05/29 05:37:02;;;;;;;9.67;5.47;;;13.30;99.90;;;;;;4993855;28;20763;-53
2021/05/29 05:39:29;;;;;;;9.83;5.30;;;13.30;99.90;;;;;;4991354;28;20269;-52
2021/05/29 05:41:56;;;;;;;9.23;5.30;;;13.40;99.90;;;;;;4976074;28;20332;-52
2021/05/29 05:44:23;;;;;;;7.57;5.20;;;13.50;99.90;;;;;;4992462;28;20529;-51
2021/05/29 05:46:50;;;;;;;6.60;4.93;;;13.60;99.90;;;;;;4992534;28;20291;-52
2021/05/29 05:49:17;;;;;;;10.83;5.43;;;13.60;99.90;;;;;;4993650;28;20607;-52
2021/05/29 05:51:43;;;;;;;9.20;5.70;;;13.40;99.90;;;;;;4993309;28;20598;-52
2021/05/29 05:54:10;;;;;;;8.07;5.70;;;13.40;99.90;;;;;;4991536;28;20201;-53
2021/05/29 05:56:37;;;;;;;6.97;4.53;;;13.50;99.90;;;;;;4976617;28;20240;-52
2021/05/29 05:59:04;;;;;;;6.97;5.10;;;13.50;99.90;;;;;;4991825;28;20225;-52
2021/05/29 06:01:31;;;;;;;8.50;5.60;;;13.50;99.90;;;;;;4990356;28;20289;-52
2021/05/29 06:03:58;;;;;;;8.73;5.77;;;13.60;99.90;;;;;;4992968;28;20205;-52
2021/05/29 06:06:24;;;;;;;8.40;5.87;;;13.50;99.90;;;;;;4992708;28;20296;-53
2021/05/29 06:08:52;;;;;;;9.13;5.10;;;13.60;99.90;;;;;;4992865;28;20622;-53
2021/05/29 06:11:19;;;;;;;6.53;5.23;;;13.70;99.90;;;;;;4992406;28;20296;-53
2021/05/29 06:21:26;;;;;;;6.93;5.13;;;13.40;99.90;;;;;;4993343;28;20288;-53
2021/05/29 06:23:53;;;;;;;7.40;5.50;;;13.70;99.90;;;;;;4991927;28;20295;-53
2021/05/29 06:26:19;;;;;;;8.57;5.47;;;13.90;99.90;;;;;;4993770;28;20232;-52
2021/05/29 06:28:46;;;;;;;7.90;5.57;;;13.80;99.90;;;;;;4993777;28;20237;-53
2021/05/29 06:31:13;;;;;;;8.43;5.33;;;14.00;99.90;;;;;;4976445;28;20682;-53
2021/05/29 06:33:40;;;;;;;6.43;5.30;;;14.10;99.90;;;;;;4993278;28;21412;-52
2021/05/29 06:36:08;;;;;;;7.87;5.27;;;14.20;99.90;;;;;;4995055;28;20304;-52
2021/05/29 06:38:35;;;;;;;7.07;5.37;;;14.30;99.90;;;;;;4994217;28;20249;-52
2021/05/29 06:41:03;;;;;;;7.73;5.77;;;14.50;99.90;;;;;;4994180;28;20302;-52
2021/05/29 06:43:30;;;;;;;8.83;5.63;;;14.80;99.90;;;;;;4993224;28;20624;-52
2021/05/29 06:45:57;;;;;;;9.33;5.83;;;14.80;99.90;;;;;;4976784;28;20290;-52
2021/05/29 06:48:25;;;;;;;9.60;5.17;;;14.90;99.90;;;;;;4991735;28;20207;-52
2021/05/29 06:50:56;;;;;;;7.40;5.17;;;15.30;99.90;;;;;;4993894;28;20231;-52
2021/05/29 06:53:32;;;;;;;7.77;5.40;;;15.50;99.90;;;;;;4992442;28;20696;-53
2021/05/29 07:01:16;;;;;;;6.93;5.63;;;15.80;99.90;;;;;;4991433;28;20297;-54
2021/05/29 07:03:44;;;;;;;7.77;5.43;;;16.10;99.90;;;;;;4991815;28;20564;-53
2021/05/29 07:06:11;;;;;;;7.40;5.77;;;16.10;99.90;;;;;;4992615;28;20611;-52
2021/05/29 07:08:39;;;;;;;6.23;4.83;;;16.20;99.90;;;;;;4973293;28;20350;-52
2021/05/29 07:11:06;;;;;;;7.40;5.10;;;16.10;99.90;;;;;;4992771;28;21179;-52
2021/05/29 07:13:32;;;;;;;7.17;5.73;;;16.10;99.90;;;;;;4993591;28;20290;-53
2021/05/29 07:16:00;;;;;;;7.50;5.63;;;16.10;99.90;;;;;;4992595;28;20306;-53
2021/05/29 07:18:31;;;;;;;6.00;5.13;;;16.30;99.90;;;;;;4990832;28;20536;-53
2021/05/29 07:20:58;;;;;;;7.50;4.87;;;16.40;99.90;;;;;;4994161;28;20219;-52
2021/05/29 07:23:28;;;;;;;9.20;5.80;;;16.80;99.90;;;;;;4995074;28;20206;-52
2021/05/29 07:25:55;;;;;;;8.03;6.60;;;17.00;99.90;;;;;;4992025;28;20317;-52
2021/05/29 07:28:22;;;;;;;7.50;5.50;;;16.70;99.90;;;;;;4990751;28;20712;-52
2021/05/29 07:30:50;;;;;;;7.93;5.37;;;16.60;99.90;;;;;;4992095;28;20239;-52
2021/05/29 07:33:17;;;;;;;7.97;5.60;;;16.50;99.90;;;;;;4990681;28;20252;-53
2021/05/29 07:35:46;;;;;;;7.10;5.27;;;16.80;99.90;;;;;;4991510;28;20344;-53
2021/05/29 07:38:13;;;;;;;7.17;5.93;;;16.70;99.90;;;;;;4990190;28;20515;-53
2021/05/29 07:40:40;;;;;;;7.57;5.67;;;17.20;99.90;;;;;;4985193;28;20353;-53
2021/05/29 07:43:07;;;;;;;6.77;5.23;;;17.70;99.90;;;;;;4994956;28;20306;-53
2021/05/29 07:45:34;;;;;;;7.73;5.50;;;17.80;92.10;;;;;;4996086;28;20630;-53
2021/05/29 07:48:01;;;;;;;6.47;4.87;;;17.20;99.90;;;;;;4996526;28;20203;-53
2021/05/29 07:50:28;;;;;;;7.37;5.50;;;17.80;97.70;;;;;;4999487;28;20288;-53
2021/05/29 07:52:54;;;;;;;6.87;5.43;;;17.70;95.60;;;;;;4996505;28;20722;-53
2021/05/29 07:55:22;;;;;;;8.47;5.60;;;18.20;94.80;;;;;;4979996;28;20234;-53
2021/05/29 07:57:49;;;;;;;8.70;5.80;;;18.20;94.00;;;;;;4981492;28;20658;-54
2021/05/29 08:00:21;;;;;;;12.30;5.03;;;18.00;93.10;;;;;;4997694;28;20244;-53
2021/05/29 08:02:48;;;;;;;10.20;5.97;;;18.50;93.50;;;;;;4997906;28;20294;-54
2021/05/29 08:05:18;;;;;;;6.40;5.70;;;18.60;88.00;;;;;;4997705;28;20207;-53
2021/05/29 08:07:45;;;;;;;9.43;5.80;;;18.70;86.70;;;;;;4999386;28;20231;-53
2021/05/29 08:10:13;;;;;;;8.47;6.07;;;18.40;83.30;;;;;;4994788;28;20290;-52
2021/05/29 08:12:40;;;;;;;6.73;5.73;;;18.40;93.00;;;;;;4996565;28;20228;-52
2021/05/29 08:15:08;;;;;;;8.00;6.17;;;18.90;83.60;;;;;;4989424;28;20326;-53
2021/05/29 08:17:35;;;;;;;8.77;6.33;;;18.50;92.60;;;;;;4992226;28;20202;-53
2021/05/29 08:20:03;;;;;;;7.60;6.07;;;19.00;83.50;;;;;;4977255;28;20220;-53
2021/05/29 08:22:30;;;;;;;13.00;7.20;;;19.30;72.00;;;;;;4995192;28;20439;-53
2021/05/29 08:24:57;;;;;;;8.27;5.83;;;18.30;86.20;;;;;;4996061;28;20307;-52
2021/05/29 08:27:24;;;;;;;11.83;5.57;;;19.00;89.70;;;;;;4996546;28;20246;-53
2021/05/29 08:29:51;;;;;;;11.90;6.30;;;19.40;67.10;;;;;;4993770;28;20216;-53
2021/05/29 08:32:18;;;;;;;8.17;6.17;;;18.90;74.60;;;;;;4995991;28;20233;-52
2021/05/29 08:34:45;;;;;;;8.10;6.50;;;18.40;76.50;;;;;;4995723;28;20241;-52
2021/05/29 08:37:12;;;;;;;8.27;5.27;;;18.30;75.90;;;;;;4996892;28;20306;-52
2021/05/29 08:39:38;;;;;;;8.10;5.53;;;18.90;75.80;;;;;;4995640;28;20248;-53
2021/05/29 08:42:06;;;;;;;10.50;6.53;;;19.20;63.90;;;;;;4996320;28;20280;-53
2021/05/29 08:44:33;;;;;;;7.23;5.40;;;19.00;81.10;;;;;;4979900;28;20209;-52
2021/05/29 08:47:02;;;;;;;6.53;5.07;;;19.00;75.40;;;;;;4999110;28;20679;-53
2021/05/29 08:49:29;;;;;;;7.03;4.90;;;19.80;67.30;;;;;;4999762;28;20259;-52
2021/05/29 08:51:57;;;;;;;5.37;4.30;;;19.80;53.90;;;;;;4997480;28;20209;-53
2021/05/29 08:54:27;;;;;;;7.57;4.77;;;19.50;54.30;;;;;;4996826;28;20216;-53
2021/05/29 08:56:54;;;;;;;8.97;5.10;;;19.30;59.50;;;;;;4998211;28;20286;-52
2021/05/29 08:59:21;;;;;;;8.43;5.40;;;19.80;53.30;;;;;;4997149;28;21036;-52
2021/05/29 09:01:48;;;;;;;6.63;4.47;;;20.20;53.40;;;;;;4995060;28;20235;-52
2021/05/29 09:04:14;;;;;;;6.23;4.73;;;20.20;52.50;;;;;;4996379;28;20603;-52
2021/05/29 09:06:44;;;;;;;7.53;4.70;;;20.40;44.80;;;;;;4996037;28;20228;-52
2021/05/29 09:09:13;;;;;;;5.87;4.20;;;20.80;41.80;;;;;;4995194;28;20237;-53
2021/05/29 09:11:49;;;;;;;9.23;4.93;;;20.10;39.50;;;;;;4995327;28;20295;-52
2021/05/29 09:14:26;;;;;;;5.53;4.30;;;19.50;43.50;;;;;;4998226;28;20262;-54
2021/05/29 09:17:24;;;;;;;4.73;3.90;;;19.50;34.50;;;;;;4994931;28;20227;-53
2021/05/29 09:20:10;;;;;;;6.13;4.53;;;20.30;41.30;;;;;;4997485;28;20601;-52
2021/05/29 09:22:37;;;;;;;4.63;4.07;;;20.30;36.20;;;;;;4995768;28;20235;-52
2021/05/29 09:25:13;;;;;;;6.00;3.70;;;20.20;34.40;;;;;;4995801;28;20326;-52
2021/05/29 09:28:04;;;;;;;6.83;3.10;;;20.30;28.90;;;;;;4998083;28;20226;-52
2021/05/29 09:30:49;;;;;;;5.87;3.10;;;19.70;28.70;;;;;;4977875;28;20243;-52
2021/05/29 09:33:21;;;;;;;6.07;4.00;;;20.40;31.10;;;;;;4994317;28;20220;-52
2021/05/29 09:35:55;;;;;;;12.80;4.33;;;20.00;33.80;;;;;;4977561;28;20240;-52
2021/05/29 09:38:23;;;;;;;6.47;4.40;;;19.40;42.20;;;;;;4981972;28;20314;-52
2021/05/29 09:40:55;;;;;;;7.33;4.87;;;20.20;36.80;;;;;;4995350;28;20301;-53
2021/05/29 09:43:22;;;;;;;8.07;5.50;;;19.70;46.50;;;;;;4976769;28;20298;-53
2021/05/29 09:46:05;;;;;;;6.67;4.37;;;19.20;53.30;;;;;;4994379;28;20532;-53
2021/05/29 09:48:32;;;;;;;5.87;4.13;;;19.50;46.90;;;;;;4994613;28;20209;-52
2021/05/29 09:51:11;;;;;;;6.00;4.60;;;19.80;54.80;;;;;;4976096;28;20601;-52
2021/05/29 09:53:43;;;;;;;7.33;4.23;;;20.40;40.20;;;;;;4995819;28;20342;-52
2021/05/29 09:56:27;;;;;;;5.13;4.30;;;20.40;41.90;;;;;;4997512;28;20233;-52
2021/05/29 09:59:00;;;;;;;8.63;4.60;;;20.00;45.20;;;;;;4979124;28;20223;-51
2021/05/29 10:01:55;;;;;;;7.70;4.83;;;19.30;49.20;;;;;;4979793;28;20205;-54
2021/05/29 10:04:22;;;;;;;10.40;5.07;;;18.70;52.30;;;;;;4984479;28;20225;-52
2021/05/29 10:06:56;;;;;;;6.43;4.33;;;19.10;55.00;;;;;;4997392;28;20714;-53
2021/05/29 10:09:24;;;;;;;6.87;4.73;;;19.30;52.10;;;;;;4980049;28;20256;-53
2021/05/29 10:11:51;;;;;;;6.17;4.60;;;20.20;44.00;;;;;;4997091;28;20241;-52
2021/05/29 10:14:19;;;;;;;8.00;4.47;;;20.30;33.90;;;;;;4997630;28;20205;-52
2021/05/29 10:16:48;;;;;;;6.83;4.83;;;20.10;38.40;;;;;;4994609;28;20296;-52
2021/05/29 10:19:17;;;;;;;6.30;4.10;;;20.20;33.50;;;;;;4979889;28;20310;-53
2021/05/29 10:21:45;;;;;;;7.43;4.63;;;20.30;31.70;;;;;;4996461;28;20288;-53
2021/05/29 10:24:11;;;;;;;6.73;4.73;;;19.40;41.90;;;;;;4993731;28;20625;-53
2021/05/29 10:26:39;;;;;;;4.60;3.83;;;19.20;50.40;;;;;;4977865;28;20219;-53
2021/05/29 10:29:06;;;;;;;5.87;4.23;;;20.10;37.50;;;;;;4996281;28;20267;-53
2021/05/29 10:31:36;;;;;;;6.43;4.80;;;19.80;38.40;;;;;;4997023;28;20244;-53
2021/05/29 10:34:06;;;;;;;6.87;4.10;;;20.20;34.80;;;;;;4995641;28;20698;-53
2021/05/29 10:36:58;;;;;;;8.20;4.50;;;20.80;36.90;;;;;;4995841;28;20631;-52
2021/05/29 10:39:42;;;;;;;5.20;4.40;;;20.60;29.00;;;;;;4989811;28;20594;-53
2021/05/29 10:42:10;;;;;;;7.40;4.80;;;20.40;31.60;;;;;;4976802;28;20229;-53
2021/05/29 10:45:17;;;;;;;4.87;3.60;;;19.70;35.40;;;;;;4994389;28;20205;-53
2021/05/29 10:48:13;;;;;;;6.13;4.00;;;20.50;32.50;;;;;;4996905;28;20630;-52
2021/05/29 10:50:53;;;;;;;5.03;3.47;;;20.90;32.60;;;;;;4997417;28;20500;-52
2021/05/29 10:53:53;;;;;;;5.53;4.43;;;20.50;34.20;;;;;;4996688;28;20241;-52
2021/05/29 10:56:23;;;;;;;9.03;4.57;;;20.00;31.20;;;;;;4997606;28;20201;-52
2021/05/29 10:59:13;;;;;;;8.60;4.90;;;20.50;29.10;;;;;;4997005;28;20234;-53
2021/05/29 11:01:50;;;;;;;5.73;4.30;;;20.90;31.70;;;;;;4996047;28;20305;-53
2021/05/29 11:04:23;;;;;;;6.40;4.33;;;21.30;28.20;;;;;;4993935;28;20621;-53
2021/05/29 11:07:16;;;;;;;6.07;4.87;;;21.30;29.00;;;;;;4997409;28;20315;-53
2021/05/29 11:09:49;;;;;;;6.33;4.97;;;20.70;29.50;;;;;;4996084;28;20248;-53
2021/05/29 11:12:16;;;;;;;7.63;5.23;;;20.30;34.90;;;;;;4996634;28;20264;-53
2021/05/29 11:14:56;;;;;;;4.63;4.13;;;20.40;34.10;;;;;;4998729;28;20683;-53
2021/05/29 11:17:24;;;;;;;7.50;5.17;;;21.50;31.30;;;;;;5001233;28;20221;-53
2021/05/29 11:20:14;;;;;;;8.70;5.47;;;21.70;27.00;;;;;;5001108;28;20719;-51
2021/05/29 11:22:51;;;;;;;5.83;4.13;;;21.00;26.90;;;;;;4998880;28;20283;-54
2021/05/29 11:25:20;;;;;;;8.37;5.10;;;21.20;25.00;;;;;;4982721;28;20239;-52
2021/05/29 11:27:48;;;;;;;6.27;4.40;;;21.20;26.90;;;;;;4999314;28;20280;-52
2021/05/29 11:30:23;;;;;;;4.90;4.37;;;21.70;26.50;;;;;;4999849;28;20243;-53
2021/05/29 11:33:21;;;;;;;5.77;4.10;;;21.70;20.50;;;;;;5001579;28;20621;-53
2021/05/29 11:35:51;;;;;;;6.57;4.33;;;22.00;20.00;;;;;;4998571;28;20305;-52
2021/05/29 11:38:32;;;;;;;7.03;4.53;;;21.80;22.70;;;;;;4995934;28;20332;-52
2021/05/29 11:41:13;;;;;;;6.83;5.17;;;22.00;21.20;;;;;;4999692;28;20200;-53
2021/05/29 11:43:44;;;;;;;6.03;4.20;;;22.10;21.10;;;;;;4998317;28;20220;-53
2021/05/29 11:46:15;;;;;;;8.33;4.40;;;22.70;21.80;;;;;;4997940;28;20197;-52
2021/05/29 11:49:06;;;;;;;6.67;4.57;;;22.90;19.70;;;;;;4982237;28;20255;-53
2021/05/29 11:51:36;;;;;;;6.70;4.70;;;22.60;21.30;;;;;;4999948;28;20221;-53
2021/05/29 11:54:19;;;;;;;5.23;4.43;;;23.30;19.00;;;;;;4998333;28;20286;-52
2021/05/29 11:56:49;;;;;;;7.30;5.47;;;23.50;12.10;;;;;;4999544;28;20201;-52
2021/05/29 11:59:20;;;;;;;8.97;4.60;;;22.30;15.80;;;;;;4999055;28;20217;-52
2021/05/29 12:01:51;;;;;;;8.17;4.30;;;22.70;19.60;;;;;;4997190;28;20264;-52
2021/05/29 12:04:19;;;;;;;7.20;3.50;;;21.70;16.20;;;;;;4995373;28;20196;-52
2021/05/29 12:06:51;;;;;;;4.80;4.10;;;20.80;22.40;;;;;;4997170;28;20206;-52
2021/05/29 12:09:26;;;;;;;6.00;3.70;;;21.00;23.20;;;;;;4997819;28;20617;-52
2021/05/29 12:11:59;;;;;;;6.77;3.37;;;21.80;17.80;;;;;;4996828;28;20217;-52
2021/05/29 12:14:46;;;;;;;6.27;3.83;;;22.60;21.10;;;;;;4996647;28;20259;-58
2021/05/29 12:17:17;;;;;;;4.47;3.70;;;22.00;19.90;;;;;;4996339;28;20758;-52
2021/05/29 12:19:50;;;;;;;5.97;4.20;;;21.80;19.50;;;;;;4996320;28;20719;-52
2021/05/29 12:22:21;;;;;;;5.30;3.80;;;20.90;23.50;;;;;;4995204;28;20194;-52
2021/05/29 12:24:53;;;;;;;4.90;4.40;;;21.20;26.80;;;;;;4993814;28;20193;-53
2021/05/29 12:27:22;;;;;;;5.43;4.10;;;21.50;21.80;;;;;;4997038;28;20288;-53
2021/05/29 12:29:55;;;;;;;4.77;3.63;;;21.80;20.30;;;;;;5000800;28;20282;-53
2021/05/29 12:32:32;;;;;;;6.47;4.17;;;22.00;20.00;;;;;;5000201;28;20201;-53
2021/05/29 12:35:38;;;;;;;8.53;3.70;;;22.20;19.00;;;;;;4998164;28;20335;-53
2021/05/29 12:38:21;;;;;;;5.10;3.70;;;22.30;15.70;;;;;;4980028;28;20210;-53
2021/05/29 12:41:08;;;;;;;7.07;3.73;;;21.50;21.30;;;;;;4979112;28;21105;-52
2021/05/29 12:43:39;;;;;;;6.77;4.00;;;21.30;26.60;;;;;;4996030;28;20545;-53
2021/05/29 12:46:21;;;;;;;4.53;3.73;;;21.40;23.10;;;;;;4978828;28;20523;-53
2021/05/29 12:49:27;;;;;;;3.80;3.20;;;21.70;24.10;;;;;;4993558;28;20202;-56
2021/05/29 12:51:58;;;;;;;3.80;3.00;;;22.10;16.50;;;;;;4922346;29;20243;-53
2021/05/29 12:54:45;;;;;;;4.60;3.13;;;22.40;18.90;;;;;;4903195;29;20387;-53
2021/05/29 12:57:12;;;;;;;3.50;3.20;;;22.60;13.60;;;;;;4923820;29;20613;-53
2021/05/29 12:59:39;;;;;;;4.40;3.87;;;21.80;18.20;;;;;;4922755;29;20295;-53
2021/05/29 13:07:24;;;;;;;3.50;3.20;;;22.00;17.60;;;;;;4921131;29;20911;-53
2021/05/29 13:07:49;;;;;;;4.77;3.10;;;21.60;19.60;;;;;;4922806;29;20213;-52
2021/05/29 13:13:07;;;;;;;3.90;3.50;;;21.70;21.50;;;;;;4923931;29;20212;-52
2021/05/29 13:15:37;;;;;;;4.60;3.23;;;22.10;17.60;;;;;;4925826;29;20586;-52
2021/05/29 13:18:22;;;;;;;5.90;3.97;;;22.60;23.80;;;;;;4923447;29;20210;-52
2021/05/29 13:21:01;;;;;;;9.50;4.27;;;21.50;21.60;;;;;;4924213;29;20240;-52